createdAt,value
2023-05-05T00:00:02.613Z,39.2
2023-05-05T00:05:03.170Z,39.2
2023-05-05T00:10:03.709Z,39.1
2023-05-05T00:15:04.348Z,39.1
2023-05-05T00:20:04.911Z,39
2023-05-05T00:25:05.559Z,38.9
2023-05-05T00:30:06.399Z,38.9
2023-05-05T00:35:07.046Z,38.8
2023-05-05T00:40:07.676Z,38.7
2023-05-05T00:45:08.452Z,38.7
2023-05-05T00:50:09.034Z,38.7
2023-05-05T00:55:09.657Z,38.6
2023-05-05T01:00:10.336Z,38.6
2023-05-05T01:05:10.921Z,38.5
2023-05-05T01:10:19.514Z,38.4
2023-05-05T01:15:20.281Z,38.4
2023-05-05T01:20:20.728Z,38.4
2023-05-05T01:25:21.156Z,38.2
2023-05-05T01:30:21.635Z,38.2
2023-05-05T01:35:22.123Z,38.2
2023-05-05T01:40:23.032Z,38.1
2023-05-05T01:45:23.528Z,38.1
2023-05-05T01:50:24.004Z,38
2023-05-05T01:55:24.613Z,38
2023-05-05T02:00:25.039Z,37.9
2023-05-05T02:05:25.474Z,37.9
2023-05-05T02:10:25.876Z,37.8
2023-05-05T02:15:26.328Z,37.7
2023-05-05T02:20:26.850Z,37.7
2023-05-05T02:25:27.260Z,37.7
2023-05-05T02:30:27.634Z,37.6
2023-05-05T02:35:28.064Z,37.6
2023-05-05T02:40:28.522Z,37.6
2023-05-05T02:45:28.919Z,37.5
2023-05-05T02:50:29.330Z,37.4
2023-05-05T02:55:29.714Z,37.4
2023-05-05T03:00:30.104Z,37.4
2023-05-05T03:05:30.522Z,37.3
2023-05-05T03:10:30.921Z,37.2
2023-05-05T03:15:31.324Z,37.2
2023-05-05T03:20:31.728Z,37.2
2023-05-05T03:25:32.117Z,37.1
2023-05-05T03:30:32.494Z,37.1
2023-05-05T03:35:32.898Z,37.1
2023-05-05T03:40:43.335Z,37
2023-05-05T03:45:44.576Z,36.9
2023-05-05T03:50:44.996Z,36.9
2023-05-05T03:55:45.407Z,36.9
2023-05-05T04:00:45.793Z,36.8
2023-05-05T04:05:46.200Z,36.8
2023-05-05T04:10:46.602Z,36.7
2023-05-05T04:15:47.064Z,36.7
2023-05-05T04:20:47.508Z,36.7
2023-05-05T04:25:47.928Z,36.6
2023-05-05T04:30:48.306Z,36.6
2023-05-05T04:35:48.723Z,36.6
2023-05-05T04:40:49.128Z,36.6
2023-05-05T04:45:49.567Z,36.5
2023-05-05T04:50:49.933Z,36.4
2023-05-05T04:55:50.297Z,36.4
2023-05-05T05:00:50.668Z,36.3
2023-05-05T05:05:51.142Z,36.2
2023-05-05T05:10:51.662Z,36.2
2023-05-05T05:15:52.231Z,36.2
2023-05-05T05:20:52.719Z,36.1
2023-05-05T05:25:53.164Z,36.1
2023-05-05T05:30:53.751Z,36.1
2023-05-05T05:35:54.293Z,36.1
2023-05-05T05:40:54.674Z,36
2023-05-05T05:45:55.178Z,35.9
2023-05-05T05:50:56.150Z,35.9
2023-05-05T05:55:56.565Z,35.9
2023-05-05T06:00:57.403Z,35.9
2023-05-05T06:05:57.761Z,35.8
2023-05-05T06:10:58.133Z,35.8
2023-05-05T06:15:58.586Z,35.7
2023-05-05T06:20:59.060Z,35.7
2023-05-05T06:25:59.472Z,35.7
2023-05-05T06:31:00.076Z,35.7
2023-05-05T06:36:01.508Z,35.6
2023-05-05T06:41:01.877Z,35.6
2023-05-05T06:46:02.225Z,35.6
2023-05-05T06:51:02.987Z,35.5
2023-05-05T06:56:03.649Z,35.5
2023-05-05T07:01:04.070Z,35.4
2023-05-05T07:06:04.561Z,35.4
2023-05-05T07:11:04.916Z,35.4
2023-05-05T07:16:05.409Z,35.4
2023-05-05T07:21:05.816Z,35.3
2023-05-05T07:26:06.153Z,35.3
2023-05-05T07:31:06.539Z,35.2
2023-05-05T07:36:07.090Z,35.2
2023-05-05T07:41:07.489Z,35.2
2023-05-05T07:46:07.881Z,35.2
2023-05-05T07:51:08.260Z,35.1
2023-05-05T07:56:08.916Z,35.1
2023-05-05T08:01:09.434Z,35.1
2023-05-05T08:06:09.758Z,35.1
2023-05-05T08:11:10.108Z,35
2023-05-05T08:16:10.539Z,35
2023-05-05T08:21:10.928Z,34.9
2023-05-05T08:26:11.265Z,34.9
2023-05-05T08:31:11.600Z,34.9
2023-05-05T08:36:12.178Z,34.9
2023-05-05T08:41:12.580Z,34.9
2023-05-05T08:46:12.927Z,34.8
2023-05-05T08:51:13.253Z,34.8
2023-05-05T08:56:13.682Z,34.7
2023-05-05T09:01:14.108Z,34.7
2023-05-05T09:06:14.676Z,34.7
2023-05-05T09:11:15.163Z,34.7
2023-05-05T09:16:15.574Z,34.6
2023-05-05T09:21:16.797Z,34.6
2023-05-05T09:26:17.115Z,34.6
2023-05-05T09:31:17.462Z,34.6
2023-05-05T09:36:18.021Z,34.6
2023-05-05T09:41:18.535Z,34.5
2023-05-05T09:46:18.863Z,34.5
2023-05-05T09:51:19.184Z,34.4
2023-05-05T09:56:23.883Z,34.4
2023-05-05T10:01:24.290Z,34.4
2023-05-05T10:06:24.686Z,34.4
2023-05-05T10:11:25.172Z,34.4
2023-05-05T10:16:26.812Z,34.3
2023-05-05T10:21:27.781Z,34.3
2023-05-05T10:26:28.093Z,34.2
2023-05-05T10:31:28.561Z,34.2
2023-05-05T10:36:28.941Z,34.2
2023-05-05T10:41:29.236Z,34.2
2023-05-05T10:46:29.587Z,34.2
2023-05-05T10:51:39.144Z,34.1
2023-05-05T10:56:40.273Z,34.1
2023-05-05T11:01:40.573Z,34.1
2023-05-05T11:06:40.975Z,34.1
2023-05-05T11:11:41.306Z,34.1
2023-05-05T11:16:42.531Z,34
2023-05-05T11:21:42.944Z,34
2023-05-05T11:26:43.422Z,33.9
2023-05-05T11:31:43.749Z,33.9
2023-05-05T11:36:44.217Z,33.9
2023-05-05T11:41:44.528Z,33.9
2023-05-05T11:46:45.000Z,33.9
2023-05-05T11:51:45.536Z,33.9
2023-05-05T11:56:46.778Z,33.8
2023-05-05T12:01:47.107Z,33.8
2023-05-05T12:06:47.489Z,33.7
2023-05-05T12:11:47.896Z,33.7
2023-05-05T12:16:48.346Z,33.7
2023-05-05T12:21:48.795Z,33.7
2023-05-05T12:26:49.137Z,33.7
2023-05-05T12:31:49.601Z,33.6
2023-05-05T12:36:49.959Z,33.6
2023-05-05T12:41:50.512Z,33.6
2023-05-05T12:46:50.827Z,33.6
2023-05-05T12:51:51.140Z,33.6
2023-05-05T12:56:51.495Z,33.6
2023-05-05T13:01:52.024Z,33.5
2023-05-05T13:06:54.065Z,33.5
2023-05-05T13:11:54.977Z,33.4
2023-05-05T13:16:55.420Z,33.4
2023-05-05T13:21:55.721Z,33.4
2023-05-05T13:26:56.012Z,33.4
2023-05-05T13:31:56.334Z,33.4
2023-05-05T13:36:56.734Z,33.4
2023-05-05T13:41:57.068Z,33.3
2023-05-05T13:46:57.357Z,33.3
2023-05-05T13:51:57.816Z,33.3
2023-05-05T13:56:58.392Z,33.2
2023-05-05T14:01:58.696Z,33.2
2023-05-05T14:06:58.978Z,33.2
2023-05-05T14:11:59.296Z,33.2
2023-05-05T14:17:00.195Z,33.2
2023-05-05T14:22:00.692Z,33.1
2023-05-05T14:27:02.385Z,33.1
2023-05-05T14:32:02.851Z,33.1
2023-05-05T14:37:03.330Z,33.1
2023-05-05T14:42:03.773Z,33
2023-05-05T14:47:04.170Z,33
2023-05-05T14:52:04.503Z,33
2023-05-05T14:57:05.112Z,32.9
2023-05-05T15:02:05.439Z,32.9
2023-05-05T15:07:05.816Z,32.9
2023-05-05T15:12:06.286Z,32.9
2023-05-05T15:17:06.775Z,32.9
2023-05-05T15:22:07.264Z,32.9
2023-05-05T15:27:07.788Z,32.8
2023-05-05T15:32:09.324Z,32.8
2023-05-05T15:37:09.641Z,32.8
2023-05-05T15:42:10.158Z,32.8
2023-05-05T15:47:10.583Z,32.7
2023-05-05T15:52:11.826Z,32.7
2023-05-05T15:57:12.202Z,32.7
2023-05-05T16:02:13.431Z,32.7
2023-05-05T16:07:13.722Z,32.7
2023-05-05T16:12:14.414Z,32.7
2023-05-05T16:17:14.751Z,32.6
2023-05-05T16:22:15.022Z,32.6
2023-05-05T16:27:15.281Z,32.6
2023-05-05T16:32:15.762Z,32.6
2023-05-05T16:37:16.090Z,32.6
2023-05-05T16:42:16.398Z,32.6
2023-05-05T16:47:16.694Z,32.6
2023-05-05T16:52:17.006Z,32.5
2023-05-05T16:57:17.289Z,32.5
2023-05-05T17:02:17.578Z,32.5
2023-05-05T17:07:17.991Z,32.4
2023-05-05T17:12:18.382Z,32.4
2023-05-05T17:17:19.639Z,32.5
2023-05-05T17:22:20.017Z,35.5
2023-05-05T17:27:20.417Z,37.9
2023-05-05T17:32:21.057Z,40.6
2023-05-05T17:37:21.753Z,41.4
2023-05-05T17:42:22.259Z,41.9
2023-05-05T17:47:23.006Z,43
2023-05-05T17:52:23.659Z,43.4
2023-05-05T17:57:24.311Z,43.5
2023-05-05T18:02:25.140Z,43.5
2023-05-05T18:07:25.839Z,43.4
2023-05-05T18:12:26.459Z,43.4
2023-05-05T18:17:27.166Z,43.4
2023-05-05T18:22:27.774Z,43.4
2023-05-05T18:27:28.372Z,43.4
2023-05-05T18:32:29.108Z,43.3
2023-05-05T18:37:29.969Z,43.3
2023-05-05T18:42:30.565Z,43.3
2023-05-05T18:47:31.177Z,43.3
2023-05-05T18:52:31.971Z,43.2
2023-05-05T18:57:32.597Z,43.2
2023-05-05T19:02:33.171Z,43.2
2023-05-05T19:07:35.700Z,43.1
2023-05-05T19:12:36.561Z,43.1
2023-05-05T19:17:37.158Z,43.1
2023-05-05T19:22:37.884Z,43
2023-05-05T19:27:38.594Z,43
2023-05-05T19:32:39.264Z,43
2023-05-05T19:37:39.869Z,42.9
2023-05-05T19:42:40.586Z,42.9
2023-05-05T19:47:41.241Z,42.9
2023-05-05T19:52:41.837Z,42.8
2023-05-05T19:57:42.365Z,42.8
2023-05-05T20:02:43.193Z,42.7
2023-05-05T20:07:46.888Z,42.7
2023-05-05T20:12:47.846Z,42.7
2023-05-05T20:17:48.945Z,42.7
2023-05-05T20:22:49.626Z,42.6
2023-05-05T20:32:56.158Z,42.5
2023-05-05T20:37:56.815Z,42.5
2023-05-05T20:42:57.352Z,42.4
2023-05-05T20:47:58.022Z,42.4
2023-05-05T20:52:58.710Z,42.4
2023-05-05T20:57:59.251Z,42.3
2023-05-05T21:02:59.808Z,42.3
2023-05-05T21:08:00.992Z,42.2
2023-05-05T21:13:01.828Z,42.2
2023-05-05T21:18:02.493Z,42.2
2023-05-05T21:23:03.358Z,42.1
2023-05-05T21:28:04.008Z,42.1
2023-05-05T21:33:04.553Z,42.1
2023-05-05T21:38:05.355Z,42.1
2023-05-05T21:43:06.027Z,42
2023-05-05T21:48:06.738Z,41.9
2023-05-05T21:53:07.376Z,41.9
2023-05-05T21:58:07.866Z,41.9
2023-05-05T22:03:08.401Z,41.9
2023-05-05T22:08:09.357Z,41.8
2023-05-05T22:13:09.964Z,41.7
2023-05-05T22:18:10.754Z,41.7
2023-05-05T22:23:11.331Z,41.7
2023-05-05T22:28:11.917Z,41.7
2023-05-05T22:33:12.381Z,41.6
2023-05-05T22:38:12.893Z,41.6
2023-05-05T22:43:13.617Z,41.6
2023-05-05T22:48:14.088Z,41.5
2023-05-05T22:53:15.435Z,41.5
2023-05-05T22:58:15.991Z,41.4
2023-05-05T23:03:16.577Z,41.4
2023-05-05T23:08:17.037Z,41.4
2023-05-05T23:13:17.837Z,41.4
2023-05-05T23:18:18.553Z,41.3
2023-05-05T23:23:18.986Z,41.2
2023-05-05T23:28:19.446Z,41.2
2023-05-05T23:33:20.060Z,41.2
2023-05-05T23:38:20.772Z,41.2
2023-05-05T23:43:21.388Z,41.1
2023-05-05T23:48:21.859Z,41.1
2023-05-05T23:53:22.301Z,41.1
2023-05-05T23:58:23.755Z,41
